Estación Meteorológica Peña el Pijo (Robertgarden) [ 06/23/21 03:05:29 CEST ]

Fecha Hora Presion(HPa) Temp (°C) Humedad % Rocio (°C) Viento ( m/s) Direccion Lluvia 1Hora(mm) Lluvia 24H(mm) LLuvia Total(mm)
2016-Mar-03 01:01:13 1009.500 9.3 64 2.8 0.7 W     932.40
2016-Mar-03 02:01:40 1009.600 8.5 66 2.5         932.40
2016-Mar-03 03:01:47 1009.500 7.4 69 2.1         932.40
2016-Mar-03 04:01:46 1009.000 8.1 71 3.2         932.40
2016-Mar-03 05:01:44 1008.400 7.2 71 2.3         932.40
2016-Mar-03 06:01:44 1008.100 6.8 72 2.1         932.40
2016-Mar-03 07:01:13 1008.100 6.9 71 2.0         932.40
2016-Mar-03 08:01:16 1008.500 3.9 74 -0.3         932.40
2016-Mar-03 09:01:14 1008.600 6.9 76 2.9         932.40
2016-Mar-03 10:01:14 1009.400 11.3 61 4.0         932.40
2016-Mar-03 11:01:17 1009.000 16.1 44 3.8         932.40
2016-Mar-03 12:01:12 1008.700 17.1 36 1.8         932.40
2016-Mar-03 13:01:14 1008.200 16.9 34 0.8 1.3 NNW     932.40
2016-Mar-03 14:01:14 1007.600 17.1 31 -0.2         932.40
2016-Mar-03 15:01:14 1006.600 17.2 31 -0.1         932.40
2016-Mar-03 16:01:14 1006.300 16.7 33 0.2 1.5 WNW     932.40
2016-Mar-03 17:01:13 1006.000 16.0 34 0.0         932.40
2016-Mar-03 18:01:17 1006.600 14.3 37 -0.3         932.40
2016-Mar-03 19:01:14 1007.000 11.3 42 -1.2         932.40
2016-Mar-03 20:01:17 1007.700 8.8 49 -1.4         932.40
2016-Mar-03 21:01:14 1008.000 7.1 55 -1.4         932.40
2016-Mar-03 22:01:12 1008.000 5.1 63 -1.4         932.40
2016-Mar-03 23:01:17 1008.000 3.7 66 -2.1         932.40

Temperatura Máxima:17°    Temperatura Mínima:
Presión Máxima:1009.600 Hpa    Presión Mínima:1006.000 Hpa


Volver